Time,TemperatureF,DewpointF,PressureIn,WindDirection,WindDirectionDegrees,WindSpeedMPH,WindSpeedGustMPH,Humidity,HourlyPrecipIn,Conditions,Clouds,dailyrainin,SoftwareType,DateUTC
2013-07-19 00:01:00,59.0,30.0,-100.00,NW,322,5.0,7.0,34,0.00,,,0.00,,2013-07-19 06:01:00,
2013-07-19 00:11:00,59.0,30.0,-100.00,NW,322,5.0,7.0,34,0.00,,,0.00,,2013-07-19 06:11:00,
2013-07-19 00:22:00,59.0,30.0,-100.00,NW,322,5.0,7.0,34,0.00,,,0.00,,2013-07-19 06:22:00,
2013-07-19 00:30:00,58.0,34.0,-100.00,NW,306,4.0,7.0,40,0.00,,,0.00,,2013-07-19 06:30:00,
2013-07-19 00:32:00,58.0,32.0,-100.00,NNW,328,5.0,6.0,37,0.00,,,0.00,,2013-07-19 06:32:00,
2013-07-19 00:43:00,58.0,32.0,-100.00,NNW,328,5.0,6.0,37,0.00,,,0.00,,2013-07-19 06:43:00,
2013-07-19 00:52:00,58.0,32.0,-100.00,NNW,328,5.0,6.0,37,0.00,,,0.00,,2013-07-19 06:52:00,
2013-07-19 01:01:00,58.0,34.0,-100.00,NW,306,4.0,7.0,40,0.00,,,0.00,,2013-07-19 07:01:00,
2013-07-19 01:12:00,58.0,34.0,-100.00,NW,306,4.0,7.0,40,0.00,,,0.00,,2013-07-19 07:12:00,
2013-07-19 01:22:00,58.0,34.0,-100.00,NW,306,4.0,7.0,40,0.00,,,0.00,,2013-07-19 07:22:00,
2013-07-19 01:43:00,58.0,36.0,-100.00,NW,319,4.0,5.0,44,0.00,,,0.00,,2013-07-19 07:43:00,
2013-07-19 01:53:00,58.0,36.0,-100.00,NW,319,4.0,5.0,44,0.00,,,0.00,,2013-07-19 07:53:00,
2013-07-19 02:01:00,58.0,36.0,-100.00,NW,319,4.0,5.0,44,0.00,,,0.00,,2013-07-19 08:01:00,
2013-07-19 02:11:00,58.0,36.0,-100.00,NW,319,4.0,5.0,44,0.00,,,0.00,,2013-07-19 08:11:00,
2013-07-19 02:22:00,57.0,37.0,-100.00,NNW,344,2.0,3.0,48,0.00,,,0.00,,2013-07-19 08:22:00,
2013-07-19 02:32:00,57.0,37.0,-100.00,NNW,344,2.0,3.0,48,0.00,,,0.00,,2013-07-19 08:32:00,
2013-07-19 03:02:00,56.0,38.0,-100.00,WNW,298,2.0,3.0,51,0.00,,,0.00,,2013-07-19 09:02:00,
2013-07-19 03:22:00,57.0,32.0,-100.00,NW,316,4.0,6.0,40,0.00,,,0.00,,2013-07-19 09:22:00,
2013-07-19 03:32:00,57.0,32.0,-100.00,NW,316,4.0,6.0,40,0.00,,,0.00,,2013-07-19 09:32:00,
2013-07-19 03:43:00,56.0,34.0,-100.00,NNW,342,2.0,3.0,44,0.00,,,0.00,,2013-07-19 09:43:00,
2013-07-19 03:52:00,56.0,34.0,-100.00,NNW,342,2.0,3.0,44,0.00,,,0.00,,2013-07-19 09:52:00,
2013-07-19 04:01:00,56.0,34.0,-100.00,NNW,342,2.0,3.0,44,0.00,,,0.00,,2013-07-19 10:01:00,
2013-07-19 04:11:00,56.0,34.0,-100.00,NNW,342,2.0,3.0,44,0.00,,,0.00,,2013-07-19 10:11:00,
2013-07-19 04:22:00,54.0,35.0,-100.00,West,270,2.0,2.0,48,0.00,,,0.00,,2013-07-19 10:22:00,
2013-07-19 04:32:00,54.0,35.0,-100.00,West,270,2.0,2.0,48,0.00,,,0.00,,2013-07-19 10:32:00,
2013-07-19 04:52:00,53.0,33.0,-100.00,WNW,298,2.0,2.0,47,0.00,,,0.00,,2013-07-19 10:52:00,
2013-07-19 05:02:00,53.0,33.0,-100.00,WNW,298,2.0,2.0,47,0.00,,,0.00,,2013-07-19 11:02:00,
2013-07-19 05:22:00,53.0,32.0,-100.00,WNW,284,1.0,1.0,44,0.00,,,0.00,,2013-07-19 11:22:00,
2013-07-19 05:33:00,53.0,32.0,-100.00,WNW,284,1.0,1.0,44,0.00,,,0.00,,2013-07-19 11:33:00,
2013-07-19 05:43:00,52.0,32.0,-100.00,WNW,287,1.0,2.0,46,0.00,,,0.00,,2013-07-19 11:43:00,
2013-07-19 05:52:00,52.0,32.0,-100.00,WNW,287,1.0,2.0,46,0.00,,,0.00,,2013-07-19 11:52:00,
2013-07-19 06:01:00,52.0,32.0,-100.00,WNW,287,1.0,2.0,46,0.00,,,0.00,,2013-07-19 12:01:00,
2013-07-19 06:12:00,52.0,33.0,-100.00,ESE,104,2.0,4.0,48,0.00,,,0.00,,2013-07-19 12:12:00,
2013-07-19 06:22:00,52.0,33.0,-100.00,ESE,104,2.0,4.0,48,0.00,,,0.00,,2013-07-19 12:22:00,
2013-07-19 06:33:00,52.0,33.0,-100.00,ESE,104,2.0,4.0,48,0.00,,,0.00,,2013-07-19 12:33:00,
2013-07-19 06:43:00,53.0,33.0,-100.00,SW,223,0.0,1.0,48,0.00,,,0.00,,2013-07-19 12:43:00,
2013-07-19 06:52:00,53.0,33.0,-100.00,SW,223,0.0,1.0,48,0.00,,,0.00,,2013-07-19 12:52:00,
2013-07-19 07:02:00,53.0,33.0,-100.00,SW,223,0.0,1.0,48,0.00,,,0.00,,2013-07-19 13:02:00,
2013-07-19 07:22:00,54.0,31.0,-100.00,SE,136,2.0,3.0,41,0.00,,,0.00,,2013-07-19 13:22:00,
2013-07-19 07:32:00,54.0,31.0,-100.00,SE,136,2.0,3.0,41,0.00,,,0.00,,2013-07-19 13:32:00,
2013-07-19 07:53:00,57.0,30.0,-100.00,ESE,123,4.0,4.0,35,0.00,,,0.00,,2013-07-19 13:53:00,
2013-07-19 08:02:00,57.0,30.0,-100.00,ESE,123,4.0,4.0,35,0.00,,,0.00,,2013-07-19 14:02:00,
2013-07-19 08:11:00,57.0,30.0,-100.00,ESE,123,4.0,4.0,35,0.00,,,0.00,,2013-07-19 14:11:00,
2013-07-19 08:22:00,61.0,31.0,-100.00,ESE,116,4.0,5.0,32,0.00,,,0.00,,2013-07-19 14:22:00,
2013-07-19 08:33:00,61.0,31.0,-100.00,ESE,116,4.0,5.0,32,0.00,,,0.00,,2013-07-19 14:33:00,
2013-07-19 08:43:00,64.0,31.0,-100.00,ESE,117,4.0,6.0,28,0.00,,,0.00,,2013-07-19 14:43:00,
2013-07-19 08:53:00,64.0,31.0,-100.00,ESE,117,4.0,6.0,28,0.00,,,0.00,,2013-07-19 14:53:00,
2013-07-19 09:43:00,65.0,32.0,-100.00,SE,138,6.0,8.0,29,0.00,,,0.00,,2013-07-19 15:43:00,
2013-07-19 10:11:00,65.0,34.0,-100.00,SE,127,6.0,9.0,31,0.00,,,0.00,,2013-07-19 16:11:00,
2013-07-19 10:22:00,66.0,34.0,-100.00,ESE,121,8.0,9.0,30,0.00,,,0.00,,2013-07-19 16:22:00,
2013-07-19 10:32:00,66.0,34.0,-100.00,ESE,121,8.0,9.0,30,0.00,,,0.00,,2013-07-19 16:32:00,
2013-07-19 10:43:00,67.0,35.0,-100.00,ESE,121,7.0,9.0,30,0.00,,,0.00,,2013-07-19 16:43:00,
2013-07-19 10:52:00,67.0,35.0,-100.00,ESE,121,7.0,9.0,30,0.00,,,0.00,,2013-07-19 16:52:00,
2013-07-19 11:02:00,67.0,35.0,-100.00,ESE,121,7.0,9.0,30,0.00,,,0.00,,2013-07-19 17:02:00,
2013-07-19 11:11:00,67.0,35.0,-100.00,ESE,121,7.0,9.0,30,0.00,,,0.00,,2013-07-19 17:11:00,
2013-07-19 11:32:00,69.0,36.0,-100.00,SE,140,8.0,11.0,30,0.00,,,0.00,,2013-07-19 17:32:00,
2013-07-19 11:43:00,70.0,38.0,-100.00,SE,126,7.0,10.0,31,0.00,,,0.00,,2013-07-19 17:43:00,
2013-07-19 11:52:00,70.0,38.0,-100.00,SE,126,7.0,10.0,31,0.00,,,0.00,,2013-07-19 17:52:00,
2013-07-19 12:11:00,74.0,36.0,-100.00,North,3,1.0,5.0,25,0.00,,,0.00,,2013-07-19 18:11:00,
2013-07-19 12:21:00,74.0,36.0,-100.00,North,3,1.0,5.0,25,0.00,,,0.00,,2013-07-19 18:21:00,
2013-07-19 12:32:00,74.0,38.0,-100.00,NNW,333,3.0,6.0,27,0.00,,,0.00,,2013-07-19 18:32:00,
2013-07-19 12:42:00,74.0,38.0,-100.00,NNW,333,3.0,6.0,27,0.00,,,0.00,,2013-07-19 18:42:00,
2013-07-19 12:52:00,74.0,38.0,-100.00,NNW,333,3.0,6.0,27,0.00,,,0.00,,2013-07-19 18:52:00,
2013-07-19 13:11:00,74.0,35.0,-100.00,NNW,333,5.0,8.0,23,0.00,,,0.00,,2013-07-19 19:11:00,
2013-07-19 13:21:00,74.0,35.0,-100.00,NNW,333,5.0,8.0,23,0.00,,,0.00,,2013-07-19 19:21:00,
2013-07-19 13:30:00,77.0,35.0,-100.00,NW,305,7.0,13.0,22,0.00,,,0.00,,2013-07-19 19:30:00,
2013-07-19 13:43:00,78.0,32.0,-100.00,NNW,330,5.0,7.0,19,0.00,,,0.00,,2013-07-19 19:43:00,
2013-07-19 13:52:00,78.0,32.0,-100.00,NNW,330,5.0,7.0,19,0.00,,,0.00,,2013-07-19 19:52:00,
2013-07-19 14:11:00,77.0,35.0,-100.00,NW,305,7.0,13.0,22,0.00,,,0.00,,2013-07-19 20:11:00,
2013-07-19 14:22:00,77.0,35.0,-100.00,NW,305,7.0,13.0,22,0.00,,,0.00,,2013-07-19 20:22:00,
2013-07-19 14:43:00,77.0,35.0,-100.00,NW,309,8.0,12.0,22,0.00,,,0.00,,2013-07-19 20:43:00,
2013-07-19 14:52:00,76.0,33.0,-100.00,NW,318,10.0,14.0,21,0.00,,,0.00,,2013-07-19 20:52:00,
2013-07-19 15:01:00,76.0,33.0,-100.00,NW,318,10.0,14.0,21,0.00,,,0.00,,2013-07-19 21:01:00,
2013-07-19 15:11:00,76.0,33.0,-100.00,NW,318,10.0,14.0,21,0.00,,,0.00,,2013-07-19 21:11:00,
2013-07-19 15:21:00,78.0,34.0,-100.00,North,352,6.0,8.0,20,0.00,,,0.00,,2013-07-19 21:21:00,
2013-07-19 15:32:00,78.0,34.0,-100.00,North,352,6.0,8.0,20,0.00,,,0.00,,2013-07-19 21:32:00,
2013-07-19 15:42:00,79.0,34.0,-100.00,NW,309,7.0,10.0,19,0.00,,,0.00,,2013-07-19 21:42:00,
2013-07-19 15:52:00,79.0,34.0,-100.00,NW,309,7.0,10.0,19,0.00,,,0.00,,2013-07-19 21:52:00,
2013-07-19 16:00:00,79.0,33.0,-100.00,NW,304,7.0,12.0,19,0.00,,,0.00,,2013-07-19 22:00:00,
2013-07-19 16:01:00,79.0,34.0,-100.00,NW,309,7.0,10.0,19,0.00,,,0.00,,2013-07-19 22:01:00,
2013-07-19 16:21:00,79.0,32.0,-100.00,North,349,10.0,16.0,18,0.00,,,0.00,,2013-07-19 22:21:00,
2013-07-19 16:32:00,79.0,32.0,-100.00,North,349,10.0,16.0,18,0.00,,,0.00,,2013-07-19 22:32:00,
2013-07-19 16:42:00,79.0,33.0,-100.00,NW,304,7.0,12.0,19,0.00,,,0.00,,2013-07-19 22:42:00,
2013-07-19 16:52:00,79.0,33.0,-100.00,NW,304,7.0,12.0,19,0.00,,,0.00,,2013-07-19 22:52:00,
2013-07-19 17:21:00,81.0,31.0,-100.00,NW,306,6.0,14.0,16,0.00,,,0.00,,2013-07-19 23:21:00,
2013-07-19 17:32:00,81.0,31.0,-100.00,NW,306,6.0,14.0,16,0.00,,,0.00,,2013-07-19 23:32:00,
2013-07-19 17:43:00,79.0,31.0,-100.00,NW,325,11.0,14.0,17,0.00,,,0.00,,2013-07-19 23:43:00,
2013-07-19 17:52:00,79.0,31.0,-100.00,NW,325,11.0,14.0,17,0.00,,,0.00,,2013-07-19 23:52:00,
2013-07-19 18:01:00,79.0,31.0,-100.00,NW,325,11.0,14.0,17,0.00,,,0.00,,2013-07-20 00:01:00,
2013-07-19 18:11:00,79.0,31.0,-100.00,NW,325,11.0,14.0,17,0.00,,,0.00,,2013-07-20 00:11:00,
2013-07-19 18:21:00,78.0,29.0,-100.00,NNW,328,15.0,22.0,16,0.00,,,0.00,,2013-07-20 00:21:00,
2013-07-19 18:30:00,79.0,30.0,-100.00,NW,312,7.0,11.0,17,0.00,,,0.00,,2013-07-20 00:30:00,
2013-07-19 18:32:00,78.0,29.0,-100.00,NNW,328,15.0,22.0,16,0.00,,,0.00,,2013-07-20 00:32:00,
2013-07-19 18:43:00,78.0,29.0,-100.00,NNW,328,15.0,22.0,16,0.00,,,0.00,,2013-07-20 00:43:00,
2013-07-19 19:01:00,79.0,30.0,-100.00,NW,312,7.0,11.0,17,0.00,,,0.00,,2013-07-20 01:01:00,
2013-07-19 19:11:00,79.0,30.0,-100.00,NW,312,7.0,11.0,17,0.00,,,0.00,,2013-07-20 01:11:00,
2013-07-19 19:22:00,79.0,30.0,-100.00,NW,312,7.0,11.0,17,0.00,,,0.00,,2013-07-20 01:22:00,
2013-07-19 20:01:00,75.0,31.0,-100.00,NW,318,7.0,12.0,19,0.00,,,0.00,,2013-07-20 02:01:00,
2013-07-19 20:11:00,75.0,31.0,-100.00,NW,318,7.0,12.0,19,0.00,,,0.00,,2013-07-20 02:11:00,
2013-07-19 20:22:00,75.0,31.0,-100.00,NW,318,7.0,12.0,19,0.00,,,0.00,,2013-07-20 02:22:00,
2013-07-19 20:32:00,73.0,32.0,-100.00,NW,305,7.0,10.0,22,0.00,,,0.00,,2013-07-20 02:32:00,
2013-07-19 20:44:00,73.0,32.0,-100.00,NW,305,7.0,10.0,22,0.00,,,0.00,,2013-07-20 02:44:00,
2013-07-19 20:52:00,73.0,32.0,-100.00,NW,305,7.0,10.0,22,0.00,,,0.00,,2013-07-20 02:52:00,
2013-07-19 21:02:00,70.0,33.0,-100.00,NW,312,4.0,7.0,25,0.00,,,0.00,,2013-07-20 03:02:00,
2013-07-19 21:11:00,70.0,33.0,-100.00,NW,312,4.0,7.0,25,0.00,,,0.00,,2013-07-20 03:11:00,
2013-07-19 21:22:00,70.0,33.0,-100.00,NW,312,4.0,7.0,25,0.00,,,0.00,,2013-07-20 03:22:00,
2013-07-19 21:44:00,69.0,34.0,-100.00,WNW,298,3.0,4.0,27,0.00,,,0.00,,2013-07-20 03:44:00,
2013-07-19 22:01:00,65.0,36.0,-100.00,NW,315,6.0,9.0,34,0.00,,,0.00,,2013-07-20 04:01:00,
2013-07-19 22:11:00,65.0,36.0,-100.00,NW,315,6.0,9.0,34,0.00,,,0.00,,2013-07-20 04:11:00,
2013-07-19 22:22:00,65.0,36.0,-100.00,NW,315,6.0,9.0,34,0.00,,,0.00,,2013-07-20 04:22:00,
2013-07-19 22:44:00,64.0,33.0,-100.00,NW,306,4.0,6.0,31,0.00,,,0.00,,2013-07-20 04:44:00,
2013-07-19 22:52:00,64.0,33.0,-100.00,NW,306,4.0,6.0,31,0.00,,,0.00,,2013-07-20 04:52:00,
2013-07-19 23:02:00,63.0,34.0,-100.00,NW,311,5.0,6.0,34,0.00,,,0.00,,2013-07-20 05:02:00,
2013-07-19 23:11:00,63.0,34.0,-100.00,NW,311,5.0,6.0,34,0.00,,,0.00,,2013-07-20 05:11:00,
2013-07-19 23:22:00,63.0,34.0,-100.00,NW,311,5.0,6.0,34,0.00,,,0.00,,2013-07-20 05:22:00,
2013-07-19 23:30:00,62.0,36.0,-100.00,NW,319,2.0,4.0,38,0.00,,,0.00,,2013-07-20 05:30:00,
2013-07-19 23:32:00,63.0,34.0,-100.00,WNW,296,5.0,7.0,34,0.00,,,0.00,,2013-07-20 05:32:00,
2013-07-19 23:52:00,63.0,34.0,-100.00,WNW,296,5.0,7.0,34,0.00,,,0.00,,2013-07-20 05:52:00,